Flight Track Log - Related Links

Times and Time Zones

All times are in EDT time to prevent confusion due to time zone crossing. See the SWA803 flight status page for this flight to view local times or setup timezone preferences in your user account.

Time Position Orientation Groundspeed Altitude Reporting Facility
EDT Latitude Longitude Course Direction KTS MPH feet Rate Location/Type
Thu 06:45:22 PM 36.0747 -115.1819 271° West 181 208 3,400  Level Los Angeles Center
Thu 06:45:58 PM 36.0753 -115.2244 271° West 203 234 4,400 1,676 Climbing Los Angeles Center
Thu 06:47:13 PM 36.0214 -115.2767 218° Southwest 245 282 6,500 1,820 Climbing Los Angeles Center
Thu 06:48:00 PM 35.9503 -115.2947 192° South 293 337 8,100 1,935 Climbing Los Angeles Center
Thu 06:48:15 PM 35.9442 -115.2906 151° Southeast 272 313 8,500 2,945 Climbing Los Angeles Center
Thu 06:48:55 PM 35.8953 -115.2408 141° Southeast 293 337 10,800 2,710 Climbing Los Angeles Center
Thu 06:49:17 PM 35.8961 -115.2211 87° East 290 334 11,300 2,200 Climbing Los Angeles Center
Thu 06:49:55 PM 35.8981 -115.1339 88° East 324 373 13,000 2,710 Climbing Los Angeles Center
Thu 06:50:19 PM 35.8992 -115.0903 88° East 319 367 14,100 2,233 Climbing Los Angeles Center
Thu 06:51:21 PM 35.9017 -114.9753 88° East 331 381 16,200 1,935 Climbing Los Angeles Center
Thu 06:53:25 PM 35.9078 -114.7217 88° East 370 426 20,100 1,774 Climbing Los Angeles Center
Thu 06:54:27 PM 35.9106 -114.5853 89° East 389 448 21,700 1,887 Climbing Los Angeles Center
Thu 06:55:29 PM 35.9144 -114.4175 88° East 404 465 24,000 1,839 Climbing Los Angeles Center
Thu 06:56:31 PM 35.9164 -114.2761 89° East 412 474 25,500 1,270 Climbing Los Angeles Center
Thu 06:57:46 PM 35.9200 -114.1053 88° East 417 480 26,900 1,182 Climbing Los Angeles Center
Thu 06:58:48 PM 35.9228 -113.9597 89° East 423 487 28,200 1,226 Climbing Los Angeles Center
Thu 07:00:03 PM 35.9111 -113.8139 96° East 430 495 29,700 1,445 Climbing Los Angeles Center
Thu 07:01:05 PM 35.8825 -113.6453 102° East 423 487 31,500 1,645 Climbing Los Angeles Center
Thu 07:02:07 PM 35.8581 -113.4861 101° East 413 475 33,100 1,016 Climbing Los Angeles Center
Thu 07:03:09 PM 35.8358 -113.3500 101° East 409 471 33,600 629 Climbing Los Angeles Center
Thu 07:04:11 PM 35.8139 -113.2100 101° East 412 474 34,400 677 Climbing Los Angeles Center
Thu 07:05:13 PM 35.7900 -113.0694 102° East 418 481 35,000 290 Climbing Los Angeles Center
Thu 07:06:15 PM 35.7661 -112.9269 102° East 424 488 35,000  Level Los Angeles Center
Thu 07:07:17 PM 35.7386 -112.7542 101° East 426 490 35,000  Level Los Angeles Center
Thu 07:08:19 PM 35.7144 -112.6106 102° East 428 493 35,000  Level Los Angeles Center
Thu 07:09:34 PM 35.6914 -112.4656 101° East 430 495 35,000  Level Los Angeles Center
Thu 07:10:36 PM 35.6594 -112.2906 103° East 435 501 35,000  Level Los Angeles Center
Thu 07:11:38 PM 35.6347 -112.1436 102° East 439 505 35,000  Level Los Angeles Center
Thu 07:12:40 PM 35.6083 -111.9978 103° East 439 505 35,000  Level Los Angeles Center
Thu 07:12:58 PM 35.5983 -111.9381 102° East 444 511 35,000  Level Albuquerque Center
Thu 07:14:00 PM 35.5886 -111.7886 95° East 447 514 35,000  Level Albuquerque Center
Thu 07:15:01 PM 35.5844 -111.6378 92° East 444 511 35,000  Level Albuquerque Center
Thu 07:16:03 PM 35.5800 -111.4881 92° East 443 510 35,000  Level Albuquerque Center
Thu 07:17:05 PM 35.5753 -111.3172 92° East 447 514 35,000  Level Albuquerque Center
Thu 07:18:06 PM 35.5686 -111.1483 93° East 445 512 35,000  Level Albuquerque Center
Thu 07:19:08 PM 35.5658 -111.0036 91° East 444 511 35,000  Level Albuquerque Center
Thu 07:20:09 PM 35.5600 -110.8567 93° East 447 514 35,000  Level Albuquerque Center
Thu 07:21:11 PM 35.5533 -110.6842 93° East 452 520 35,000  Level Albuquerque Center
Thu 07:22:13 PM 35.5478 -110.5369 93° East 452 520 35,000  Level Albuquerque Center
Thu 07:23:14 PM 35.5422 -110.3650 92° East 453 521 35,000  Level Albuquerque Center
Thu 07:24:16 PM 35.5361 -110.2169 93° East 454 522 35,000  Level Albuquerque Center
Thu 07:25:17 PM 35.5300 -110.0428 92° East 457 526 35,000  Level Albuquerque Center
Thu 07:26:19 PM 35.5233 -109.8944 93° East 456 525 35,000  Level Albuquerque Center
Thu 07:27:20 PM 35.5169 -109.7456 93° East 457 526 35,000  Level Albuquerque Center
Thu 07:28:22 PM 35.5092 -109.5714 93° East 458 527 35,000  Level Albuquerque Center
Thu 07:29:23 PM 35.5033 -109.4228 93° East 459 528 35,000  Level Albuquerque Center
Thu 07:30:25 PM 35.4950 -109.2489 93° East 460 529 35,000  Level Albuquerque Center
Thu 07:31:26 PM 35.4783 -109.1017 98° East 459 528 35,000  Level Albuquerque Center
Thu 07:32:28 PM 35.4564 -108.9311 99° East 457 526 35,000  Level Albuquerque Center
Thu 07:33:29 PM 35.4269 -108.7867 104° East 458 527 35,000  Level Albuquerque Center
Thu 07:34:31 PM 35.3831 -108.6211 108° East 460 529 35,000  Level Albuquerque Center
Thu 07:35:32 PM 35.3467 -108.4772 107° East 461 531 35,000  Level Albuquerque Center
Thu 07:36:34 PM 35.3117 -108.3322 106° East 464 534 35,000  Level Albuquerque Center
Thu 07:37:35 PM 35.2583 -108.1672 112° Southeast 468 539 35,000  Level Albuquerque Center
Thu 07:38:37 PM 35.2019 -108.0333 117° Southeast 464 534 35,000  Level Albuquerque Center
Thu 07:39:38 PM 35.1417 -107.8717 114° Southeast 468 539 35,000  Level Albuquerque Center
Thu 07:40:40 PM 35.0889 -107.7419 116° Southeast 469 540 35,000  Level Albuquerque Center
Thu 07:41:41 PM 35.0325 -107.5989 116° Southeast 470 541 35,000  Level Albuquerque Center
Thu 07:42:43 PM 34.9781 -107.4561 115° Southeast 467 537 35,000  Level Albuquerque Center
Thu 07:43:44 PM 34.9233 -107.3136 115° Southeast 468 539 35,000  Level Albuquerque Center
Thu 07:44:45 PM 34.8731 -107.1317 109° East 478 550 35,000  Level Albuquerque Center
Thu 07:45:47 PM 34.8603 -106.9789 96° East 474 545 35,000  Level Albuquerque Center
Thu 07:46:48 PM 34.8444 -106.8017 96° East 471 542 35,000  Level Albuquerque Center
Thu 07:47:50 PM 34.8331 -106.6600 96° East 482 555 35,000  Level Albuquerque Center
Thu 07:48:51 PM 34.8214 -106.5000 95° East 480 552 35,000  Level Albuquerque Center
Thu 07:49:53 PM 34.8075 -106.3067 95° East 481 554 35,000  Level Albuquerque Center
Thu 07:50:54 PM 34.7939 -106.1422 96° East 483 556 35,000  Level Albuquerque Center
Thu 07:51:56 PM 34.7806 -105.9789 96° East 482 555 35,000  Level Albuquerque Center
Thu 07:52:57 PM 34.7686 -105.8150 95° East 484 557 35,000  Level Albuquerque Center
Thu 07:53:59 PM 34.7550 -105.6517 96° East 483 556 35,000  Level Albuquerque Center
Thu 07:55:00 PM 34.7414 -105.4872 96° East 485 558 35,000  Level Albuquerque Center
Thu 07:56:02 PM 34.7286 -105.3225 95° East 486 559 35,000  Level Albuquerque Center
Thu 07:57:03 PM 34.7150 -105.1586 96° East 485 558 35,000  Level Albuquerque Center
Thu 07:58:05 PM 34.7006 -104.9939 96° East 487 560 35,000  Level Albuquerque Center
Thu 07:59:06 PM 34.6825 -104.8017 96° East 489 563 35,000  Level Albuquerque Center
Thu 08:00:08 PM 34.6650 -104.6397 97° East 484 557 35,000  Level Albuquerque Center
Thu 08:01:10 PM 34.6247 -104.4881 108° East 481 554 35,000  Level Albuquerque Center
Thu 08:02:11 PM 34.5856 -104.3339 107° East 477 549 35,000  Level Albuquerque Center
Thu 08:03:13 PM 34.5447 -104.1800 108° East 478 550 35,000  Level Albuquerque Center
Thu 08:04:14 PM 34.5047 -104.0242 107° East 481 554 35,000  Level Albuquerque Center
Thu 08:05:16 PM 34.4650 -103.8683 107° East 481 554 35,000  Level Albuquerque Center
Thu 08:06:18 PM 34.4242 -103.7139 108° East 481 554 35,000  Level Albuquerque Center
Thu 08:07:19 PM 34.3758 -103.5325 108° East 481 554 35,000  Level Albuquerque Center
Thu 08:08:21 PM 34.3344 -103.3778 108° East 482 555 35,000  Level Albuquerque Center
Thu 08:09:23 PM 34.2928 -103.2228 108° East 481 554 35,000  Level Albuquerque Center
Thu 08:10:24 PM 34.2503 -103.0661 108° East 484 557 35,000  Level Albuquerque Center
Thu 08:11:26 PM 34.2108 -102.9239 109° East 487 560 35,000  Level Albuquerque Center
Thu 08:12:28 PM 34.1664 -102.7719 109° East 484 557 35,000  Level Albuquerque Center
Thu 08:13:29 PM 34.1108 -102.6231 114° Southeast 487 560 35,000  Level Albuquerque Center
Thu 08:14:31 PM 34.0467 -102.4481 114° Southeast 479 551 35,000  Level Albuquerque Center
Thu 08:15:33 PM 33.9928 -102.3036 114° Southeast 475 547 35,000  Level Albuquerque Center
Thu 08:16:02 PM 33.9639 -102.2289 115° Southeast 473 544 35,000  Level Fort Worth Center
Thu 08:17:02 PM 33.9058 -102.1031 119° Southeast 473 544 35,000  Level Fort Worth Center
Thu 08:18:02 PM 33.8406 -101.9544 118° Southeast 473 544 35,000  Level Fort Worth Center
Thu 08:19:02 PM 33.7725 -101.8111 120° Southeast 473 544 35,000  Level Fort Worth Center
Thu 08:20:02 PM 33.7161 -101.6908 119° Southeast 471 542 35,000  Level Fort Worth Center
Thu 08:21:02 PM 33.6422 -101.5350 120° Southeast 481 554 35,000  Level Fort Worth Center
Thu 08:22:02 PM 33.5814 -101.4150 121° Southeast 476 548 35,000  Level Fort Worth Center
Thu 08:23:02 PM 33.5150 -101.2650 118° Southeast 470 541 35,000  Level Fort Worth Center
Thu 08:24:02 PM 33.4733 -101.1314 110° East 470 541 35,000  Level Fort Worth Center
Thu 08:25:02 PM 33.4253 -100.9875 112° Southeast 470 541 35,000  Level Fort Worth Center
Thu 08:26:02 PM 33.3814 -100.8389 109° East 470 541 35,000  Level Fort Worth Center
Thu 08:27:02 PM 33.3414 -100.6906 108° East 470 541 35,000  Level Fort Worth Center
Thu 08:28:02 PM 33.2994 -100.5400 108° East 470 541 35,000 350 Level Fort Worth Center
Thu 08:29:02 PM 33.2572 -100.3919 109° East 470 541 35,700 800 Climbing Fort Worth Center
Thu 08:30:02 PM 33.2167 -100.2442 108° East 465 535 36,600 650 Climbing Fort Worth Center
Thu 08:31:02 PM 33.1783 -100.0964 107° East 465 535 37,000 200 Climbing Fort Worth Center
Thu 08:32:02 PM 33.1375 -99.9489 108° East 470 541 37,000  Level Fort Worth Center
Thu 08:33:02 PM 33.0925 -99.7914 109° East 470 541 37,000  Level Fort Worth Center
Thu 08:34:02 PM 33.0494 -99.6364 108° East 475 547 37,000  Level Fort Worth Center
Thu 08:35:02 PM 33.0042 -99.4842 109° East 481 554 37,000  Level Fort Worth Center
Thu 08:36:02 PM 32.9567 -99.3147 108° East 487 560 37,000  Level Fort Worth Center
Thu 08:37:02 PM 32.9108 -99.1606 109° East 487 560 37,000  Level Fort Worth Center
Thu 08:38:02 PM 32.8650 -99.0061 109° East 487 560 37,000  Level Fort Worth Center
Thu 08:39:02 PM 32.8231 -98.8547 108° East 487 560 37,000  Level Fort Worth Center
Thu 08:40:02 PM 32.7744 -98.6983 110° East 487 560 37,000  Level Fort Worth Center
Thu 08:41:02 PM 32.7300 -98.5444 109° East 492 566 37,000  Level Fort Worth Center
Thu 08:42:02 PM 32.6894 -98.4083 109° East 486 559 37,000  Level Fort Worth Center
Thu 08:43:02 PM 32.6386 -98.2400 110° East 492 566 37,000  Level Fort Worth Center
Thu 08:44:02 PM 32.5975 -98.1039 110° East 492 566 37,000  Level Fort Worth Center
Thu 08:45:02 PM 32.5483 -97.9333 109° East 492 566 37,000  Level Fort Worth Center
Thu 08:46:02 PM 32.5072 -97.7953 109° East 492 566 37,000  Level Fort Worth Center
Thu 08:47:02 PM 32.4553 -97.6300 110° East 492 566 37,000  Level Fort Worth Center
Thu 08:48:02 PM 32.4094 -97.4772 110° East 492 566 37,000  Level Fort Worth Center
Thu 08:49:02 PM 32.3658 -97.3272 109° East 492 566 37,000  Level Fort Worth Center
Thu 08:50:02 PM 32.3153 -97.1725 111° Southeast 492 566 37,000  Level Fort Worth Center
Thu 08:51:02 PM 32.2711 -97.0228 109° East 492 566 37,000  Level Fort Worth Center
Thu 08:52:02 PM 32.2206 -96.8706 111° Southeast 492 566 37,000  Level Fort Worth Center
Thu 08:53:02 PM 32.1781 -96.7164 108° East 492 566 37,000  Level Fort Worth Center
Thu 08:54:02 PM 32.1417 -96.5569 105° East 487 560 37,000  Level Fort Worth Center
Thu 08:55:02 PM 32.1069 -96.4053 105° East 478 550 37,000  Level Fort Worth Center
Thu 08:56:02 PM 32.0847 -96.2486 99° East 478 550 37,000  Level Fort Worth Center
Thu 08:57:02 PM 32.0603 -96.0919 100° East 484 557 37,000  Level Fort Worth Center
Thu 08:58:02 PM 32.0400 -95.9478 99° East 484 557 37,000  Level Fort Worth Center
Thu 08:59:02 PM 32.0172 -95.7961 100° East 484 557 37,000  Level Fort Worth Center
Thu 09:00:02 PM 31.9942 -95.6400 100° East 484 557 37,000  Level Fort Worth Center
Thu 09:01:02 PM 31.9753 -95.4836 98° East 484 557 37,000  Level Fort Worth Center
Thu 09:02:02 PM 31.9561 -95.3322 98° East 484 557 37,000  Level Fort Worth Center
Thu 09:03:02 PM 31.9367 -95.1661 98° East 474 545 37,000  Level Fort Worth Center
Thu 09:04:02 PM 31.9253 -95.0122 95° East 469 540 37,000  Level Fort Worth Center
Thu 09:05:02 PM 31.9100 -94.8608 97° East 469 540 37,000  Level Fort Worth Center
Thu 09:06:02 PM 31.8961 -94.7047 96° East 464 534 37,000  Level Fort Worth Center
Thu 09:07:02 PM 31.9239 -94.5472 78° East 464 534 37,000  Level Fort Worth Center
Thu 09:08:02 PM 31.9808 -94.3936 66° East 487 560 37,000  Level Fort Worth Center
Thu 09:09:02 PM 32.0419 -94.2372 65° Northeast 493 567 37,000  Level Fort Worth Center
Thu 09:10:02 PM 32.0983 -94.0856 66° East 498 573 37,000  Level Fort Worth Center
Thu 09:11:02 PM 32.1506 -93.9267 69° East 510 587 37,000  Level Fort Worth Center
Thu 09:12:02 PM 32.1250 -93.7633 100° East 494 568 37,000  Level Fort Worth Center
Thu 09:14:28 PM 32.0097 -93.3825 110° East 508 585 37,000  Level Houston Center
Thu 09:15:30 PM 31.9814 -93.2178 101° East 521 600 37,000  Level Houston Center
Thu 09:16:32 PM 31.9742 -93.0442 93° East 530 610 37,000  Level Houston Center
Thu 09:17:34 PM 31.9206 -92.8872 112° Southeast 509 586 37,000  Level Houston Center
Thu 09:18:36 PM 31.8339 -92.7639 130° Southeast 490 564 37,000  Level Houston Center
Thu 09:19:38 PM 31.7469 -92.6394 129° Southeast 491 565 37,000  Level Houston Center
Thu 09:20:40 PM 31.6606 -92.5142 129° Southeast 493 567 37,000  Level Houston Center
Thu 09:21:42 PM 31.5731 -92.3883 129° Southeast 496 571 37,000  Level Houston Center
Thu 09:22:44 PM 31.4675 -92.2392 130° Southeast 497 572 37,000  Level Houston Center
Thu 09:23:46 PM 31.3703 -92.1344 137° Southeast 477 549 37,000  Level Houston Center
Thu 09:24:48 PM 31.2661 -92.0300 139° Southeast 478 550 37,000  Level Houston Center
Thu 09:25:50 PM 31.1658 -91.9267 139° Southeast 478 550 37,000  Level Houston Center
Thu 09:26:52 PM 31.0725 -91.8144 134° Southeast 484 557 37,000  Level Houston Center
Thu 09:27:54 PM 30.9908 -91.6883 127° Southeast 488 562 37,000  Level Houston Center
Thu 09:28:56 PM 30.9075 -91.5622 128° Southeast 490 564 37,000  Level Houston Center
Thu 09:29:58 PM 30.8250 -91.4364 127° Southeast 489 563 37,000  Level Houston Center
Thu 09:30:59 PM 30.7311 -91.2981 128° Southeast 486 559 37,000  Level Houston Center
Thu 09:32:01 PM 30.6494 -91.1756 128° Southeast 482 555 37,000  Level Houston Center
Thu 09:33:03 PM 30.5664 -91.0528 128° Southeast 484 557 37,000  Level Houston Center
Thu 09:34:05 PM 30.4831 -90.9292 128° Southeast 487 560 37,000  Level Houston Center
Thu 09:35:07 PM 30.3817 -90.7797 128° Southeast 494 568 37,000  Level Houston Center
Thu 09:36:08 PM 30.2975 -90.6553 128° Southeast 492 566 37,000  Level Houston Center
Thu 09:37:10 PM 30.2281 -90.5172 120° Southeast 499 574 37,000  Level Houston Center
Thu 09:38:12 PM 30.1608 -90.3778 119° Southeast 500 575 37,000  Level Houston Center
Thu 09:39:14 PM 30.0936 -90.2383 119° Southeast 501 577 37,000  Level Houston Center
Thu 09:40:15 PM 30.0261 -90.1000 119° Southeast 501 577 37,000  Level Houston Center
Thu 09:41:17 PM 29.9450 -89.9328 119° Southeast 503 579 37,000  Level Houston Center
Thu 09:42:19 PM 29.8767 -89.7925 119° Southeast 506 582 37,000  Level Houston Center
Thu 09:43:20 PM 29.8083 -89.6522 119° Southeast 504 580 37,000  Level Houston Center
Thu 09:44:22 PM 29.7394 -89.5117 119° Southeast 507 583 37,000  Level Houston Center
Thu 09:45:24 PM 29.6703 -89.3706 119° Southeast 510 587 37,000  Level Houston Center
Thu 09:46:25 PM 29.5856 -89.1992 120° Southeast 515 593 37,000  Level Houston Center
Thu 09:47:27 PM 29.5144 -89.0564 120° Southeast 516 594 37,000  Level Houston Center
Thu 09:48:29 PM 29.4436 -88.9119 119° Southeast 520 598 37,000  Level Houston Center
Thu 09:49:30 PM 29.3711 -88.7692 120° Southeast 521 600 37,000  Level Houston Center
Thu 09:50:32 PM 29.2994 -88.6250 120° Southeast 522 601 37,000  Level Houston Center
Thu 09:51:33 PM 29.2267 -88.4814 120° Southeast 521 600 37,000  Level Houston Center
Thu 09:52:35 PM 29.1544 -88.3364 120° Southeast 524 603 37,000  Level Houston Center
Thu 09:53:36 PM 29.0819 -88.1919 120° Southeast 524 603 37,000  Level Houston Center
Thu 09:54:38 PM 28.9944 -88.0175 120° Southeast 528 608 37,000  Level Houston Center
Thu 09:55:40 PM 28.9208 -87.8725 120° Southeast 530 610 37,000  Level Houston Center
Thu 09:56:41 PM 28.8469 -87.7294 121° Southeast 526 605 37,000  Level Houston Center
Thu 09:57:43 PM 28.7761 -87.5892 120° Southeast 519 597 37,000  Level Houston Center
Thu 09:58:44 PM 28.7039 -87.4494 120° Southeast 514 592 37,000  Level Houston Center
Thu 09:59:38 PM 28.6292 -87.3033 120° Southeast 512 589 37,000  Level Jacksonville Center
Thu 10:00:38 PM 28.5819 -87.1569 110° East 506 582 37,000  Level Jacksonville Center
Thu 10:01:38 PM 28.5264 -87.0058 113° Southeast 506 582 37,000  Level Jacksonville Center
Thu 10:02:38 PM 28.4728 -86.8525 112° Southeast 514 592 37,000  Level Jacksonville Center
Thu 10:03:38 PM 28.4169 -86.7017 113° Southeast 514 592 37,000  Level Jacksonville Center
Thu 10:04:38 PM 28.3628 -86.5511 112° Southeast 523 602 37,000  Level Jacksonville Center
Thu 10:05:38 PM 28.3086 -86.4031 113° Southeast 517 595 37,000  Level Jacksonville Center
Thu 10:06:38 PM 28.2522 -86.2478 112° Southeast 512 589 37,000  Level Jacksonville Center
Thu 10:07:38 PM 28.1975 -86.1000 113° Southeast 512 589 37,000  Level Jacksonville Center
Thu 10:08:38 PM 28.1408 -85.9453 113° Southeast 514 592 37,000  Level Jacksonville Center
Thu 10:09:38 PM 28.0878 -85.8025 113° Southeast 509 586 37,000  Level Jacksonville Center
Thu 10:10:38 PM 28.0328 -85.6528 113° Southeast 509 586 37,000  Level Jacksonville Center
Thu 10:11:38 PM 27.9733 -85.5008 114° Southeast 509 586 37,000 -510 Level Jacksonville Center
Thu 10:13:58 PM 27.9336 -85.1539 97° East 505 581 35,300 -840 Descending Miami Center
Thu 10:14:58 PM 27.9289 -84.9822 92° East 506 582 34,200 -1,050 Descending Miami Center
Thu 10:15:58 PM 27.9253 -84.8269 91° East 506 582 33,200 -942 Descending Miami Center
Thu 10:16:59 PM 27.9317 -84.6703 87° East 501 577 32,300 -1,377 Descending Miami Center
Thu 10:18:00 PM 27.9275 -84.5153 92° East 501 577 30,400 -2,067 Descending Miami Center
Thu 10:18:58 PM 27.9292 -84.3650 89° East 496 571 28,200 -2,150 Descending Miami Center
Thu 10:20:00 PM 27.9286 -84.2172 90° East 478 550 26,100 -2,100 Descending Miami Center
Thu 10:20:58 PM 27.9231 -84.0761 93° East 464 534 24,000 -2,085 Descending Miami Center
Thu 10:21:58 PM 27.9258 -83.9378 89° East 445 512 22,000 -1,934 Descending Miami Center
Thu 10:22:59 PM 27.9217 -83.8083 92° East 430 495 20,100 -1,835 Descending Miami Center
Thu 10:23:59 PM 27.9194 -83.6839 91° East 410 472 18,300 -1,815 Descending Miami Center
Thu 10:24:58 PM 27.9211 -83.5619 89° East 395 455 16,500 -1,884 Descending Miami Center
Thu 10:26:00 PM 27.9161 -83.4442 93° East 384 442 14,500 -1,934 Descending Miami Center
Thu 10:26:59 PM 27.9169 -83.3317 89° East 373 429 12,600 -1,800 Descending Miami Center
Thu 10:28:00 PM 27.9136 -83.2211 92° East 361 415 10,900 -1,339 Descending Miami Center
Thu 10:29:00 PM 27.9014 -83.1169 98° East 345 397 9,900 -458 Descending Miami Center
Thu 10:29:58 PM 27.8803 -83.0292 105° East 316 364 10,000 -763 Climbing Miami Center
Thu 10:30:58 PM 27.8567 -82.9433 107° East 293 337 8,400 -1,650 Descending Miami Center
Thu 10:31:58 PM 27.8397 -82.8533 102° East 287 330 6,700 -1,537 Descending Miami Center
Thu 10:32:59 PM 27.8350 -82.7661 93° East 282 325 5,300 -1,250 Descending Miami Center
Thu 10:33:58 PM 27.8361 -82.6842 89° East 272 313 4,200 -884 Descending Miami Center
Thu 10:35:08 PM 27.8500 -82.6000 79° East 199 229 3,400 -923 Descending Tampa TRACON
Thu 10:36:08 PM 27.8667 -82.5500 69° East 167 192 2,200 -1,150 Descending Tampa TRACON
Thu 10:37:08 PM 27.9167 -82.5500 360° North 151 174 1,100 -950 Descending Tampa TRACON
Thu 10:38:08 PM 27.9500 -82.5500 360° North 148 170 300 -800 Descending Tampa TRACON
Thu 10:40:00 PM 27.9667 -82.5167 19° North  Level FlightAware Approximate
Thu 10:47:00 PM 27.9755 -82.5332 19° North  Level Estimated

Login

Don't have an account? Register now (free) for customized features, flight alerts, and more!